createdAt,value
2023-01-20T00:02:27.285Z,22.23
2023-01-20T00:04:58.466Z,20.42
2023-01-20T00:07:28.230Z,22.23
2023-01-20T00:09:58.106Z,21.20
2023-01-20T00:12:27.856Z,21.83
2023-01-20T00:14:57.703Z,21.20
2023-01-20T00:17:31.066Z,22.15
2023-01-20T00:20:00.854Z,23.40
2023-01-20T00:22:30.644Z,27.52
2023-01-20T00:25:00.431Z,23.40
2023-01-20T00:27:30.218Z,23.33
2023-01-20T00:30:00.032Z,22.20
2023-01-20T00:32:32.394Z,22.60
2023-01-20T00:35:02.226Z,22.10
2023-01-20T00:37:32.094Z,23.23
2023-01-20T00:40:01.945Z,21.40
2023-01-20T00:42:31.800Z,22.75
2023-01-20T00:45:02.942Z,21.63
2023-01-20T00:47:35.537Z,22.80
2023-01-20T00:50:05.447Z,19.73
2023-01-20T00:52:35.243Z,25.75
2023-01-20T00:55:05.133Z,25.92
2023-01-20T00:57:34.946Z,24.38
2023-01-20T01:00:04.788Z,20.90
2023-01-20T01:02:40.513Z,24.67
2023-01-20T01:05:11.268Z,22.50
2023-01-20T01:07:41.125Z,22.20
2023-01-20T01:10:12.974Z,24.10
2023-01-20T01:12:42.853Z,21.88
2023-01-20T01:15:14.284Z,20.15
2023-01-20T01:17:46.861Z,21.80
2023-01-20T01:20:17.133Z,22.33
2023-01-20T01:22:46.994Z,23.75
2023-01-20T01:25:16.822Z,22.83
2023-01-20T01:27:46.698Z,25.35
2023-01-20T01:30:16.640Z,24.88
2023-01-20T01:32:50.199Z,21.55
2023-01-20T01:35:19.999Z,24.50
2023-01-20T01:37:49.785Z,25.90
2023-01-20T01:40:20.232Z,21.75
2023-01-20T01:42:50.082Z,22.88
2023-01-20T01:45:28.804Z,23.85
2023-01-20T01:48:09.058Z,24.17
2023-01-20T01:50:45.697Z,26.20
2023-01-20T01:53:16.989Z,25.73
2023-01-20T01:55:50.835Z,24.88
2023-01-20T01:58:25.248Z,23.88
2023-01-20T02:03:29.900Z,26.33
2023-01-20T02:08:30.488Z,23.25
2023-01-20T02:11:00.256Z,27.40
2023-01-20T02:13:30.179Z,25.50
2023-01-20T02:16:06.656Z,25.80
2023-01-20T02:18:49.013Z,18.75
2023-01-20T02:21:46.898Z,22.35
2023-01-20T02:24:42.089Z,22.92
2023-01-20T02:30:15.838Z,28.65
2023-01-20T02:32:54.443Z,24.40
2023-01-20T02:35:29.206Z,24.65
2023-01-20T02:38:08.033Z,26.17
2023-01-20T02:40:45.960Z,25.02
2023-01-20T02:43:23.714Z,25.05
2023-01-20T02:46:02.598Z,24.15
2023-01-20T02:48:39.849Z,26.15
2023-01-20T02:51:15.036Z,22.85
2023-01-20T02:53:51.306Z,24.83
2023-01-20T02:56:24.136Z,28.45
2023-01-20T02:58:57.234Z,26.52
2023-01-20T03:01:33.392Z,29.00
2023-01-20T03:04:09.827Z,29.88
2023-01-20T03:06:45.187Z,26.15
2023-01-20T03:09:20.895Z,26.35
2023-01-20T03:11:56.725Z,25.23
2023-01-20T03:14:26.607Z,29.58
2023-01-20T03:16:56.599Z,28.73
2023-01-20T03:19:29.223Z,23.63
2023-01-20T03:21:59.150Z,27.15
2023-01-20T03:24:32.166Z,27.33
2023-01-20T03:27:02.278Z,26.67
2023-01-20T03:29:32.639Z,23.80
2023-01-20T03:32:05.066Z,27.38
2023-01-20T03:34:39.790Z,27.35
2023-01-20T03:37:10.118Z,24.77
2023-01-20T03:39:41.335Z,24.98
2023-01-20T03:42:13.919Z,23.23
2023-01-20T03:45:00.366Z,24.85
2023-01-20T03:47:44.292Z,23.98
2023-01-20T03:50:28.532Z,22.50
2023-01-20T03:53:03.720Z,27.80
2023-01-20T03:55:36.632Z,23.90
2023-01-20T03:58:10.354Z,24.02
2023-01-20T04:00:43.982Z,22.45
2023-01-20T04:03:18.555Z,20.83
2023-01-20T04:05:52.222Z,23.33
2023-01-20T04:08:27.289Z,20.80
2023-01-20T04:11:00.602Z,22.02
2023-01-20T04:13:30.409Z,23.00
2023-01-20T04:16:02.291Z,23.27
2023-01-20T04:18:32.172Z,19.40
2023-01-20T04:21:06.270Z,23.33
2023-01-20T04:23:41.998Z,21.10
2023-01-20T04:26:11.865Z,21.55
2023-01-20T04:28:41.654Z,19.50
2023-01-20T04:31:25.005Z,21.55
2023-01-20T04:33:59.669Z,23.35
2023-01-20T04:36:32.114Z,22.95
2023-01-20T04:39:01.899Z,22.55
2023-01-20T04:41:31.643Z,22.05
2023-01-20T04:44:01.408Z,20.13
2023-01-20T04:46:32.092Z,22.23
2023-01-20T04:49:01.862Z,20.52
2023-01-20T04:51:35.263Z,25.23
2023-01-20T04:54:05.146Z,21.33
2023-01-20T04:56:35.010Z,25.52
2023-01-20T04:59:04.884Z,22.98
2023-01-20T05:01:35.280Z,24.00
2023-01-20T05:04:05.162Z,21.88
2023-01-20T05:06:37.773Z,19.42
2023-01-20T05:09:10.770Z,22.00
2023-01-20T05:11:40.737Z,25.77
2023-01-20T05:14:10.732Z,23.42
2023-01-20T05:16:40.636Z,25.58
2023-01-20T05:19:10.433Z,22.95
2023-01-20T05:21:43.052Z,20.70
2023-01-20T05:24:12.861Z,23.35
2023-01-20T05:26:42.746Z,20.48
2023-01-20T05:29:12.526Z,21.25
2023-01-20T05:31:43.493Z,21.42
2023-01-20T05:34:13.875Z,21.48
2023-01-20T05:36:46.237Z,22.08
2023-01-20T05:39:16.082Z,21.60
2023-01-20T05:41:46.486Z,20.08
2023-01-20T05:44:16.705Z,18.40
2023-01-20T05:46:46.506Z,24.48
2023-01-20T05:49:16.595Z,23.52
2023-01-20T05:51:49.087Z,18.92
2023-01-20T05:54:19.073Z,23.73
2023-01-20T05:56:51.489Z,19.33
2023-01-20T05:59:21.479Z,21.52
2023-01-20T06:01:51.286Z,24.02
2023-01-20T06:04:21.400Z,21.60
2023-01-20T06:06:53.908Z,27.95
2023-01-20T06:09:23.764Z,22.23
2023-01-20T06:11:54.294Z,24.23
2023-01-20T06:14:24.111Z,23.63
2023-01-20T06:16:53.859Z,26.10
2023-01-20T06:19:23.650Z,21.75
2023-01-20T06:21:56.232Z,26.30
2023-01-20T06:24:25.968Z,21.88
2023-01-20T06:26:55.926Z,23.60
2023-01-20T06:29:25.791Z,24.95
2023-01-20T06:31:55.864Z,24.13
2023-01-20T06:34:25.662Z,23.45
2023-01-20T06:36:58.334Z,22.27
2023-01-20T06:39:28.135Z,24.10
2023-01-20T06:42:00.450Z,26.08
2023-01-20T06:44:30.656Z,23.55
2023-01-20T06:47:00.678Z,25.33
2023-01-20T06:49:30.476Z,23.83
2023-01-20T06:52:03.051Z,23.30
2023-01-20T06:54:32.865Z,26.42
2023-01-20T06:57:02.773Z,25.17
2023-01-20T06:59:32.559Z,23.90
2023-01-20T07:02:02.486Z,26.25
2023-01-20T07:04:32.319Z,25.30
2023-01-20T07:07:04.827Z,25.60
2023-01-20T07:09:34.605Z,22.38
2023-01-20T07:12:04.397Z,23.77
2023-01-20T07:14:34.249Z,23.63
2023-01-20T07:17:04.038Z,22.20
2023-01-20T07:19:33.802Z,24.77
2023-01-20T07:22:06.180Z,25.23
2023-01-20T07:24:35.998Z,26.85
2023-01-20T07:27:05.840Z,24.40
2023-01-20T07:29:35.654Z,23.23
2023-01-20T07:32:05.471Z,24.42
2023-01-20T07:34:35.357Z,25.73
2023-01-20T07:37:07.721Z,25.42
2023-01-20T07:39:38.158Z,29.55
2023-01-20T07:42:08.076Z,25.33
2023-01-20T07:44:37.917Z,26.30
2023-01-20T07:47:07.872Z,25.67
2023-01-20T07:49:37.663Z,22.75
2023-01-20T07:52:10.039Z,29.13
2023-01-20T07:54:39.848Z,22.52
2023-01-20T07:57:09.641Z,22.77
2023-01-20T07:59:39.374Z,24.35
2023-01-20T08:02:09.130Z,22.92
2023-01-20T08:04:38.969Z,23.70
2023-01-20T08:07:11.476Z,24.73
2023-01-20T08:09:41.975Z,18.67
2023-01-20T08:12:11.743Z,24.92
2023-01-20T08:14:41.526Z,21.92
2023-01-20T08:17:11.275Z,28.65
2023-01-20T08:19:41.032Z,21.27
2023-01-20T08:22:13.442Z,20.85
2023-01-20T08:24:43.275Z,25.45
2023-01-20T08:27:13.470Z,19.05
2023-01-20T08:29:43.257Z,19.50
2023-01-20T08:32:13.039Z,21.17
2023-01-20T08:34:43.327Z,20.30
2023-01-20T08:37:15.931Z,20.13
2023-01-20T08:39:45.906Z,20.52
2023-01-20T08:42:15.836Z,18.73
2023-01-20T08:44:47.351Z,20.45
2023-01-20T08:47:17.183Z,23.65
2023-01-20T08:49:47.056Z,21.88
2023-01-20T08:52:19.463Z,18.83
2023-01-20T08:54:49.459Z,17.33
2023-01-20T08:57:19.206Z,18.65
2023-01-20T08:59:50.779Z,16.88
2023-01-20T09:02:20.625Z,20.08
2023-01-20T09:04:50.377Z,18.88
2023-01-20T09:07:23.411Z,17.50
2023-01-20T09:09:53.241Z,18.27
2023-01-20T09:12:23.096Z,18.92
2023-01-20T09:14:52.911Z,16.88
2023-01-20T09:17:22.716Z,19.17
2023-01-20T09:19:52.879Z,15.02
2023-01-20T09:22:25.276Z,16.25
2023-01-20T09:24:56.191Z,17.67
2023-01-20T09:27:26.951Z,20.70
2023-01-20T09:29:56.727Z,14.52
2023-01-20T09:32:26.535Z,16.08
2023-01-20T09:34:56.989Z,15.45
2023-01-20T09:37:41.827Z,17.05
2023-01-20T09:43:20.922Z,17.27
2023-01-20T09:45:56.232Z,16.00
2023-01-20T09:48:48.082Z,14.73
2023-01-20T09:51:39.701Z,23.33
2023-01-20T09:54:22.902Z,16.35
2023-01-20T09:56:56.360Z,19.75
2023-01-20T09:59:30.321Z,13.55
2023-01-20T10:02:03.392Z,15.93
2023-01-20T10:04:38.856Z,12.70
2023-01-20T10:07:13.296Z,15.13
2023-01-20T10:12:24.787Z,16.35
2023-01-20T10:15:02.235Z,15.27
2023-01-20T10:17:37.326Z,13.32
2023-01-20T10:20:12.898Z,14.07
2023-01-20T10:22:48.438Z,15.80
2023-01-20T10:25:25.354Z,15.27
2023-01-20T10:27:59.458Z,14.15
2023-01-20T10:30:35.777Z,15.60
2023-01-20T10:33:11.526Z,15.80
2023-01-20T10:35:44.629Z,13.52
2023-01-20T10:38:23.851Z,12.27
2023-01-20T10:41:03.099Z,15.82
2023-01-20T10:43:34.042Z,15.68
2023-01-20T10:46:25.074Z,11.32
2023-01-20T10:49:25.589Z,15.30
2023-01-20T10:52:12.159Z,15.00
2023-01-20T10:54:49.108Z,12.65
2023-01-20T10:57:21.767Z,13.63
2023-01-20T10:59:54.469Z,14.80
2023-01-20T11:02:28.607Z,13.82
2023-01-20T11:05:01.819Z,15.25
2023-01-20T11:07:34.511Z,14.68
2023-01-20T11:10:17.090Z,16.90
2023-01-20T11:12:53.423Z,14.48
2023-01-20T11:15:25.591Z,17.30
2023-01-20T11:18:24.381Z,12.00
2023-01-20T11:20:56.824Z,15.50
2023-01-20T11:23:35.518Z,14.40
2023-01-20T11:26:10.119Z,13.73
2023-01-20T11:28:56.487Z,15.68
2023-01-20T11:31:40.261Z,12.68
2023-01-20T11:34:24.300Z,14.13
2023-01-20T11:37:14.761Z,13.15
2023-01-20T11:39:47.726Z,16.40
2023-01-20T11:42:20.316Z,13.48
2023-01-20T11:44:54.638Z,14.43
2023-01-20T11:47:26.828Z,13.88
2023-01-20T11:50:25.698Z,15.25
2023-01-20T11:52:55.489Z,13.27
2023-01-20T11:55:27.308Z,15.07
2023-01-20T11:58:00.118Z,12.43
2023-01-20T12:00:41.954Z,13.93
2023-01-20T12:03:37.222Z,13.85
2023-01-20T12:08:49.636Z,12.35
2023-01-20T12:11:23.401Z,8.75
2023-01-20T12:14:28.790Z,10.00
2023-01-20T12:17:12.624Z,12.63
2023-01-20T12:19:56.477Z,12.10
2023-01-20T12:22:31.150Z,13.10
2023-01-20T12:25:13.783Z,11.90
2023-01-20T12:27:51.637Z,14.65
2023-01-20T12:30:39.460Z,12.15
2023-01-20T12:33:20.779Z,11.95
2023-01-20T12:36:07.870Z,8.90
2023-01-20T12:38:44.461Z,10.10
2023-01-20T12:41:24.146Z,8.43
2023-01-20T12:44:01.691Z,9.80
2023-01-20T12:46:41.794Z,6.68
2023-01-20T12:49:38.982Z,8.93
2023-01-20T12:52:25.433Z,9.00
2023-01-20T12:55:11.786Z,9.63
2023-01-20T12:58:01.914Z,8.50
2023-01-20T13:00:50.877Z,8.80
2023-01-20T13:03:47.587Z,11.75
2023-01-20T13:06:49.883Z,10.40
2023-01-20T13:09:39.403Z,7.60
2023-01-20T13:12:27.182Z,12.77
2023-01-20T13:15:02.421Z,9.68
2023-01-20T13:17:40.220Z,10.57
2023-01-20T13:20:23.490Z,9.25
2023-01-20T13:23:01.596Z,10.52
2023-01-20T13:25:32.718Z,6.22
2023-01-20T13:28:03.165Z,10.55
2023-01-20T13:30:47.918Z,7.88
2023-01-20T13:35:52.231Z,8.38
2023-01-20T13:38:30.784Z,8.32
2023-01-20T13:41:03.450Z,7.53
2023-01-20T13:43:55.280Z,6.53
2023-01-20T13:46:49.883Z,5.63
2023-01-20T13:49:32.159Z,6.80
2023-01-20T13:52:01.986Z,6.78
2023-01-20T13:54:48.335Z,9.18
2023-01-20T13:57:37.499Z,8.65
2023-01-20T14:00:19.117Z,6.75
2023-01-20T14:02:50.592Z,8.82
2023-01-20T14:05:32.908Z,7.75
2023-01-20T14:08:03.305Z,11.68
2023-01-20T14:10:35.666Z,7.72
2023-01-20T14:13:12.283Z,6.85
2023-01-20T14:15:43.229Z,7.38
2023-01-20T14:18:18.650Z,4.60
2023-01-20T14:21:03.202Z,6.85
2023-01-20T14:26:13.287Z,8.23
2023-01-20T14:28:51.671Z,8.90
2023-01-20T14:31:34.337Z,7.40
2023-01-20T14:34:06.531Z,7.72
2023-01-20T14:36:36.494Z,6.57
2023-01-20T14:39:09.597Z,7.13
2023-01-20T14:41:52.133Z,6.10
2023-01-20T14:44:24.038Z,7.97
2023-01-20T14:46:56.265Z,7.03
2023-01-20T14:49:30.293Z,7.32
2023-01-20T14:52:00.710Z,7.57
2023-01-20T14:54:41.556Z,11.55
2023-01-20T14:57:28.900Z,6.35
2023-01-20T15:00:21.803Z,4.63
2023-01-20T15:03:09.914Z,5.40
2023-01-20T15:05:43.146Z,5.68
2023-01-20T15:08:26.076Z,4.70
2023-01-20T15:11:22.351Z,11.55
2023-01-20T15:14:11.985Z,8.48
2023-01-20T15:16:50.385Z,6.20
2023-01-20T15:19:30.857Z,7.50
2023-01-20T15:22:20.635Z,10.80
2023-01-20T15:24:52.131Z,10.20
2023-01-20T15:27:29.420Z,6.80
2023-01-20T15:30:15.801Z,8.73
2023-01-20T15:32:45.830Z,7.75
2023-01-20T15:35:16.919Z,5.72
2023-01-20T15:37:47.285Z,6.03
2023-01-20T15:40:19.048Z,8.50
2023-01-20T15:42:49.809Z,8.18
2023-01-20T15:45:22.262Z,8.50
2023-01-20T15:47:52.849Z,10.15
2023-01-20T15:50:24.215Z,10.85
2023-01-20T15:52:54.171Z,8.60
2023-01-20T15:55:24.168Z,11.82
2023-01-20T15:57:55.260Z,15.88
2023-01-20T16:00:29.224Z,13.10
2023-01-20T16:02:59.139Z,14.27
2023-01-20T16:05:29.070Z,11.85
2023-01-20T16:07:59.547Z,13.85
2023-01-20T16:10:29.311Z,14.38
2023-01-20T16:12:59.058Z,13.82
2023-01-20T16:15:31.657Z,12.35
2023-01-20T16:18:01.387Z,13.25
2023-01-20T16:20:32.205Z,17.23
2023-01-20T16:23:01.985Z,16.17
2023-01-20T16:25:32.806Z,18.42
2023-01-20T16:28:05.211Z,14.00
2023-01-20T16:30:37.741Z,14.30
2023-01-20T16:33:17.158Z,17.05
2023-01-20T16:35:47.042Z,11.35
2023-01-20T16:38:18.463Z,12.82
2023-01-20T16:40:50.567Z,18.27
2023-01-20T16:43:21.342Z,11.60
2023-01-20T16:45:55.991Z,14.85
2023-01-20T16:48:27.652Z,12.32
2023-01-20T16:50:57.521Z,13.10
2023-01-20T16:53:27.309Z,11.60
2023-01-20T16:55:57.086Z,10.73
2023-01-20T16:58:26.948Z,12.68
2023-01-20T17:00:59.406Z,12.75
2023-01-20T17:03:29.457Z,10.52
2023-01-20T17:05:59.207Z,13.10
2023-01-20T17:08:28.956Z,11.95
2023-01-20T17:10:58.725Z,10.00
2023-01-20T17:13:28.625Z,11.15
2023-01-20T17:16:02.859Z,13.65
2023-01-20T17:18:32.677Z,13.57
2023-01-20T17:21:06.886Z,9.18
2023-01-20T17:23:37.753Z,11.18
2023-01-20T17:26:09.231Z,15.38
2023-01-20T17:28:39.002Z,13.70
2023-01-20T17:31:11.491Z,14.45
2023-01-20T17:33:41.361Z,14.35
2023-01-20T17:36:12.617Z,13.43
2023-01-20T17:38:45.756Z,13.45
2023-01-20T17:41:16.541Z,11.23
2023-01-20T17:43:48.245Z,9.82
2023-01-20T17:46:22.437Z,14.07
2023-01-20T17:48:53.482Z,10.05
2023-01-20T17:51:25.306Z,14.90
2023-01-20T17:53:55.690Z,11.90
2023-01-20T17:56:26.199Z,14.93
2023-01-20T17:58:56.005Z,14.52
2023-01-20T18:01:30.293Z,15.38
2023-01-20T18:04:01.599Z,15.82
2023-01-20T18:06:35.021Z,12.63
2023-01-20T18:09:04.935Z,14.25
2023-01-20T18:11:37.426Z,13.73
2023-01-20T18:14:08.091Z,14.40
2023-01-20T18:16:42.811Z,14.05
2023-01-20T18:19:14.655Z,17.08
2023-01-20T18:21:46.146Z,15.35
2023-01-20T18:24:16.478Z,14.23
2023-01-20T18:26:46.325Z,16.42
2023-01-20T18:29:17.978Z,13.15
2023-01-20T18:31:50.408Z,13.45
2023-01-20T18:34:20.781Z,16.27
2023-01-20T18:36:50.530Z,14.25
2023-01-20T18:39:22.115Z,16.00
2023-01-20T18:41:52.865Z,12.75
2023-01-20T18:44:23.333Z,14.65
2023-01-20T18:46:55.697Z,15.38
2023-01-20T18:49:25.487Z,19.30
2023-01-20T18:51:55.336Z,19.35
2023-01-20T18:54:25.917Z,15.95
2023-01-20T18:56:55.746Z,17.27
2023-01-20T18:59:26.116Z,16.70
2023-01-20T19:01:59.484Z,22.77
2023-01-20T19:04:29.934Z,22.67
2023-01-20T19:06:59.691Z,21.48
2023-01-20T19:09:29.664Z,16.48
2023-01-20T19:11:59.454Z,20.17
2023-01-20T19:14:29.318Z,22.25
2023-01-20T19:17:01.763Z,20.92
2023-01-20T19:19:31.585Z,19.23
2023-01-20T19:22:01.381Z,21.50
2023-01-20T19:24:31.547Z,22.15
2023-01-20T19:27:03.011Z,19.75
2023-01-20T19:29:33.047Z,15.55
2023-01-20T19:32:05.407Z,19.42
2023-01-20T19:34:35.155Z,18.67
2023-01-20T19:37:04.993Z,19.30
2023-01-20T19:39:34.750Z,18.25
2023-01-20T19:42:04.567Z,18.17
2023-01-20T19:44:34.403Z,22.58
2023-01-20T19:47:06.946Z,20.13
2023-01-20T19:49:36.842Z,23.60
2023-01-20T19:52:07.001Z,24.08
2023-01-20T19:54:37.766Z,22.38
2023-01-20T19:57:09.512Z,19.95
2023-01-20T19:59:40.937Z,21.77
2023-01-20T20:02:15.902Z,27.73
2023-01-20T20:04:45.618Z,22.85
2023-01-20T20:07:15.432Z,22.38
2023-01-20T20:09:45.312Z,20.20
2023-01-20T20:12:15.138Z,19.38
2023-01-20T20:14:47.967Z,21.20
2023-01-20T20:17:25.679Z,22.98
2023-01-20T20:19:55.589Z,21.58
2023-01-20T20:22:25.337Z,25.40
2023-01-20T20:24:55.088Z,24.20
2023-01-20T20:27:24.837Z,25.65
2023-01-20T20:29:56.510Z,24.60
2023-01-20T20:32:28.890Z,26.92
2023-01-20T20:34:59.424Z,22.98
2023-01-20T20:37:31.136Z,23.88
2023-01-20T20:40:00.889Z,26.33
2023-01-20T20:42:30.709Z,24.33
2023-01-20T20:45:00.642Z,21.38
2023-01-20T20:47:35.064Z,25.75
2023-01-20T20:50:04.895Z,23.25
2023-01-20T20:52:34.673Z,23.33
2023-01-20T20:55:04.459Z,23.75
2023-01-20T20:57:35.246Z,21.27
2023-01-20T21:00:05.345Z,23.38
2023-01-20T21:02:39.631Z,23.38
2023-01-20T21:05:10.079Z,21.17
2023-01-20T21:07:40.438Z,21.02
2023-01-20T21:10:12.416Z,21.00
2023-01-20T21:12:42.216Z,21.60
2023-01-20T21:15:13.711Z,27.20
2023-01-20T21:17:46.308Z,23.02
2023-01-20T21:20:16.445Z,21.73
2023-01-20T21:22:50.032Z,19.77
2023-01-20T21:25:23.999Z,21.55
2023-01-20T21:27:53.851Z,21.67
2023-01-20T21:30:23.959Z,28.13
2023-01-20T21:32:58.711Z,23.83
2023-01-20T21:35:28.421Z,18.90
2023-01-20T21:37:58.187Z,19.88
2023-01-20T21:40:27.929Z,23.42
2023-01-20T21:43:18.569Z,23.10
2023-01-20T21:45:52.398Z,24.30
2023-01-20T21:48:38.025Z,23.35
2023-01-20T21:51:20.683Z,21.90
2023-01-20T21:53:50.475Z,23.48
2023-01-20T21:56:20.710Z,23.00
2023-01-20T21:58:50.524Z,22.67
2023-01-20T22:01:20.355Z,19.02
2023-01-20T22:03:52.794Z,23.27
2023-01-20T22:06:22.537Z,19.80
2023-01-20T22:08:52.335Z,22.15
2023-01-20T22:11:22.159Z,21.20
2023-01-20T22:13:55.183Z,21.77
2023-01-20T22:16:25.664Z,21.60
2023-01-20T22:18:58.328Z,22.52
2023-01-20T22:21:28.148Z,21.92
2023-01-20T22:23:57.935Z,22.30
2023-01-20T22:26:27.777Z,20.45
2023-01-20T22:28:57.592Z,18.83
2023-01-20T22:31:29.239Z,20.35
2023-01-20T22:34:04.497Z,20.17
2023-01-20T22:36:35.265Z,18.95
2023-01-20T22:39:06.475Z,21.10
2023-01-20T22:41:36.715Z,20.58
2023-01-20T22:44:06.693Z,19.30
2023-01-20T22:46:36.917Z,19.33
2023-01-20T22:49:09.357Z,18.67
2023-01-20T22:51:39.237Z,19.80
2023-01-20T22:54:10.741Z,22.80
2023-01-20T22:56:41.677Z,19.75
2023-01-20T22:59:14.857Z,21.35
2023-01-20T23:01:44.618Z,20.65
2023-01-20T23:04:17.053Z,22.85
2023-01-20T23:06:46.929Z,19.92
2023-01-20T23:09:18.626Z,22.73
2023-01-20T23:11:50.235Z,19.38
2023-01-20T23:14:40.118Z,21.75
2023-01-20T23:17:09.978Z,22.50
2023-01-20T23:19:42.459Z,17.77
2023-01-20T23:22:12.225Z,21.52
2023-01-20T23:24:42.063Z,18.65
2023-01-20T23:27:11.994Z,19.80
2023-01-20T23:29:41.779Z,21.33
2023-01-20T23:32:12.596Z,18.65
2023-01-20T23:34:44.922Z,19.63
2023-01-20T23:37:14.685Z,21.25
2023-01-20T23:39:44.442Z,21.38
2023-01-20T23:42:14.182Z,20.95
2023-01-20T23:44:43.902Z,19.75
2023-01-20T23:47:13.627Z,18.95
2023-01-20T23:49:45.968Z,21.38
2023-01-20T23:52:15.779Z,20.45
2023-01-20T23:54:45.540Z,18.92
2023-01-20T23:57:15.327Z,19.17
2023-01-20T23:59:45.182Z,18.80
